sensor_id;sensor_type;location;lat;lon;timestamp;pressure;altitude;pressure_sealevel;temperature;humidity
60852;BME280;48553;50.766;2.900;2023-04-01T00:01:05;98834.72;;;9.76;97.07
60852;BME280;48553;50.766;2.900;2023-04-01T00:04:06;98831.19;;;9.75;97.19
60852;BME280;48553;50.766;2.900;2023-04-01T00:07:07;98838.63;;;9.75;97.15
60852;BME280;48553;50.766;2.900;2023-04-01T00:10:09;98841.34;;;9.75;96.95
60852;BME280;48553;50.766;2.900;2023-04-01T00:13:10;98837.44;;;9.76;97.04
60852;BME280;48553;50.766;2.900;2023-04-01T00:16:12;98833.16;;;9.75;96.88
60852;BME280;48553;50.766;2.900;2023-04-01T00:19:12;98846.06;;;9.78;96.93
60852;BME280;48553;50.766;2.900;2023-04-01T00:22:13;98849.56;;;9.75;96.79
60852;BME280;48553;50.766;2.900;2023-04-01T00:25:13;98847.97;;;9.74;96.81
60852;BME280;48553;50.766;2.900;2023-04-01T00:28:19;98858.91;;;9.74;96.90
60852;BME280;48553;50.766;2.900;2023-04-01T00:31:19;98863.59;;;9.73;96.86
60852;BME280;48553;50.766;2.900;2023-04-01T00:34:20;98866.72;;;9.72;96.60
60852;BME280;48553;50.766;2.900;2023-04-01T00:37:21;98867.53;;;9.72;96.79
60852;BME280;48553;50.766;2.900;2023-04-01T00:40:39;98868.28;;;9.73;96.53
60852;BME280;48553;50.766;2.900;2023-04-01T00:43:42;98875.72;;;9.72;96.48
60852;BME280;48553;50.766;2.900;2023-04-01T00:46:42;98872.59;;;9.74;96.66
60852;BME280;48553;50.766;2.900;2023-04-01T00:49:46;98874.91;;;9.72;96.54
60852;BME280;48553;50.766;2.900;2023-04-01T00:52:48;98873.34;;;9.71;96.86
60852;BME280;48553;50.766;2.900;2023-04-01T00:55:56;98882.34;;;9.71;96.69
60852;BME280;48553;50.766;2.900;2023-04-01T00:59:00;98883.13;;;9.72;96.60
60852;BME280;48553;50.766;2.900;2023-04-01T01:02:07;98882.75;;;9.73;96.43
60852;BME280;48553;50.766;2.900;2023-04-01T01:05:14;98890.53;;;9.68;96.92
60852;BME280;48553;50.766;2.900;2023-04-01T01:08:30;98898.34;;;9.69;96.55
60852;BME280;48553;50.766;2.900;2023-04-01T01:15:07;98890.13;;;9.69;96.89
60852;BME280;48553;50.766;2.900;2023-04-01T01:21:42;98905.75;;;9.69;96.78
60852;BME280;48553;50.766;2.900;2023-04-01T01:31:33;98913.56;;;9.67;96.96
60852;BME280;48553;50.766;2.900;2023-04-01T01:38:00;98919.03;;;9.67;96.79
60852;BME280;48553;50.766;2.900;2023-04-01T01:41:04;98922.53;;;9.64;97.10
60852;BME280;48553;50.766;2.900;2023-04-01T01:44:07;98928.78;;;9.64;97.13
60852;BME280;48553;50.766;2.900;2023-04-01T01:47:09;98929.56;;;9.65;96.88
60852;BME280;48553;50.766;2.900;2023-04-01T01:50:10;98927.22;;;9.67;96.74
60852;BME280;48553;50.766;2.900;2023-04-01T01:53:12;98937.41;;;9.66;96.66
60852;BME280;48553;50.766;2.900;2023-04-01T01:56:13;98942.09;;;9.66;96.82
60852;BME280;48553;50.766;2.900;2023-04-01T01:59:15;98942.88;;;9.66;96.62
60852;BME280;48553;50.766;2.900;2023-04-01T02:02:18;98945.19;;;9.64;96.78
60852;BME280;48553;50.766;2.900;2023-04-01T02:05:23;98955.75;;;9.66;96.71
60852;BME280;48553;50.766;2.900;2023-04-01T02:08:41;98963.19;;;9.65;96.71
60852;BME280;48553;50.766;2.900;2023-04-01T02:11:49;98972.53;;;9.64;96.78
60852;BME280;48553;50.766;2.900;2023-04-01T02:15:11;98965.09;;;9.65;96.95
60852;BME280;48553;50.766;2.900;2023-04-01T02:18:15;98979.53;;;9.61;96.87
60852;BME280;48553;50.766;2.900;2023-04-01T02:21:17;98983.84;;;9.62;96.64
60852;BME280;48553;50.766;2.900;2023-04-01T02:24:19;98992.44;;;9.61;96.82
60852;BME280;48553;50.766;2.900;2023-04-01T02:27:23;98992.03;;;9.62;96.61
60852;BME280;48553;50.766;2.900;2023-04-01T02:30:25;98989.69;;;9.61;96.68
60852;BME280;48553;50.766;2.900;2023-04-01T02:33:27;99003.78;;;9.63;96.37
60852;BME280;48553;50.766;2.900;2023-04-01T02:36:28;99010.41;;;9.62;96.56
60852;BME280;48553;50.766;2.900;2023-04-01T02:39:29;99008.09;;;9.64;96.17
60852;BME280;48553;50.766;2.900;2023-04-01T02:42:30;99014.31;;;9.61;96.30
60852;BME280;48553;50.766;2.900;2023-04-01T02:45:30;99014.69;;;9.59;96.24
60852;BME280;48553;50.766;2.900;2023-04-01T02:48:31;99014.69;;;9.59;96.49
60852;BME280;48553;50.766;2.900;2023-04-01T02:51:32;99016.63;;;9.59;96.46
60852;BME280;48553;50.766;2.900;2023-04-01T02:54:33;99033.03;;;9.59;96.31
60852;BME280;48553;50.766;2.900;2023-04-01T02:57:33;99022.03;;;9.55;96.51
60852;BME280;48553;50.766;2.900;2023-04-01T03:00:34;99017.00;;;9.57;96.46
60852;BME280;48553;50.766;2.900;2023-04-01T03:03:34;99025.63;;;9.59;96.14
60852;BME280;48553;50.766;2.900;2023-04-01T03:06:35;99032.25;;;9.58;96.28
60852;BME280;48553;50.766;2.900;2023-04-01T03:09:37;99040.06;;;9.60;95.96
60852;BME280;48553;50.766;2.900;2023-04-01T03:12:37;99057.25;;;9.57;96.33
60852;BME280;48553;50.766;2.900;2023-04-01T03:15:38;99054.50;;;9.57;96.49
60852;BME280;48553;50.766;2.900;2023-04-01T03:18:38;99062.34;;;9.58;96.39
60852;BME280;48553;50.766;2.900;2023-04-01T03:21:38;99067.00;;;9.58;96.24
60852;BME280;48553;50.766;2.900;2023-04-01T03:24:39;99065.81;;;9.55;96.41
60852;BME280;48553;50.766;2.900;2023-04-01T03:27:39;99070.56;;;9.58;96.32
60852;BME280;48553;50.766;2.900;2023-04-01T03:30:40;99071.66;;;9.54;96.54
60852;BME280;48553;50.766;2.900;2023-04-01T03:33:40;99080.69;;;9.58;96.31
60852;BME280;48553;50.766;2.900;2023-04-01T03:36:41;99065.81;;;9.55;96.30
60852;BME280;48553;50.766;2.900;2023-04-01T03:39:41;99075.19;;;9.54;96.47
60852;BME280;48553;50.766;2.900;2023-04-01T03:42:42;99068.19;;;9.57;96.36
60852;BME280;48553;50.766;2.900;2023-04-01T03:45:46;99079.47;;;9.55;96.42
60852;BME280;48553;50.766;2.900;2023-04-01T03:48:47;99085.34;;;9.54;96.45
60852;BME280;48553;50.766;2.900;2023-04-01T03:51:47;99080.66;;;9.54;96.77
60852;BME280;48553;50.766;2.900;2023-04-01T03:54:48;99081.00;;;9.53;96.55
60852;BME280;48553;50.766;2.900;2023-04-01T03:57:49;99090.41;;;9.55;96.60
60852;BME280;48553;50.766;2.900;2023-04-01T04:00:49;99092.38;;;9.55;96.76
60852;BME280;48553;50.766;2.900;2023-04-01T04:03:50;99104.84;;;9.52;97.04
60852;BME280;48553;50.766;2.900;2023-04-01T04:06:51;99110.31;;;9.52;96.82
60852;BME280;48553;50.766;2.900;2023-04-01T04:09:51;99105.97;;;9.51;96.76
60852;BME280;48553;50.766;2.900;2023-04-01T04:12:52;99113.03;;;9.52;96.48
60852;BME280;48553;50.766;2.900;2023-04-01T04:15:52;99125.94;;;9.52;96.42
60852;BME280;48553;50.766;2.900;2023-04-01T04:18:53;99132.53;;;9.51;96.71
60852;BME280;48553;50.766;2.900;2023-04-01T04:21:53;99123.13;;;9.48;96.48
60852;BME280;48553;50.766;2.900;2023-04-01T04:24:53;99133.28;;;9.48;96.68
60852;BME280;48553;50.766;2.900;2023-04-01T04:27:54;99141.91;;;9.50;96.52
60852;BME280;48553;50.766;2.900;2023-04-01T04:30:55;99130.97;;;9.50;96.51
60852;BME280;48553;50.766;2.900;2023-04-01T04:33:55;99128.19;;;9.46;96.68
60852;BME280;48553;50.766;2.900;2023-04-01T04:36:56;99142.28;;;9.48;96.74
60852;BME280;48553;50.766;2.900;2023-04-01T04:39:56;99139.97;;;9.50;96.57
60852;BME280;48553;50.766;2.900;2023-04-01T04:42:57;99148.16;;;9.50;96.53
60852;BME280;48553;50.766;2.900;2023-04-01T04:45:57;99147.00;;;9.51;96.52
60852;BME280;48553;50.766;2.900;2023-04-01T04:48:58;99162.63;;;9.51;96.64
60852;BME280;48553;50.766;2.900;2023-04-01T04:51:58;99160.63;;;9.48;96.68
60852;BME280;48553;50.766;2.900;2023-04-01T04:54:59;99160.22;;;9.46;97.08
60852;BME280;48553;50.766;2.900;2023-04-01T04:58:00;99178.19;;;9.47;96.96
60852;BME280;48553;50.766;2.900;2023-04-01T05:01:08;99178.56;;;9.45;97.35
60852;BME280;48553;50.766;2.900;2023-04-01T05:04:09;99181.31;;;9.45;97.01
60852;BME280;48553;50.766;2.900;2023-04-01T05:07:10;99180.50;;;9.45;97.03
60852;BME280;48553;50.766;2.900;2023-04-01T05:10:11;99179.00;;;9.47;96.82
60852;BME280;48553;50.766;2.900;2023-04-01T05:13:11;99182.50;;;9.48;96.82
60852;BME280;48553;50.766;2.900;2023-04-01T05:16:14;99188.34;;;9.46;96.67
60852;BME280;48553;50.766;2.900;2023-04-01T05:19:15;99188.34;;;9.46;96.71
60852;BME280;48553;50.766;2.900;2023-04-01T05:22:15;99202.78;;;9.47;96.68
60852;BME280;48553;50.766;2.900;2023-04-01T05:25:16;99211.38;;;9.45;96.76
60852;BME280;48553;50.766;2.900;2023-04-01T05:28:16;99199.25;;;9.43;96.63
60852;BME280;48553;50.766;2.900;2023-04-01T05:31:17;99217.13;;;9.40;96.67
60852;BME280;48553;50.766;2.900;2023-04-01T05:34:17;99212.47;;;9.40;96.75
60852;BME280;48553;50.766;2.900;2023-04-01T05:37:18;99223.41;;;9.40;96.66
60852;BME280;48553;50.766;2.900;2023-04-01T05:40:19;99226.94;;;9.41;96.46
60852;BME280;48553;50.766;2.900;2023-04-01T05:43:20;99226.16;;;9.40;95.92
60852;BME280;48553;50.766;2.900;2023-04-01T05:46:21;99233.53;;;9.40;96.59
60852;BME280;48553;50.766;2.900;2023-04-01T05:49:21;99235.88;;;9.38;96.44
60852;BME280;48553;50.766;2.900;2023-04-01T05:52:22;99236.66;;;9.38;96.67
60852;BME280;48553;50.766;2.900;2023-04-01T05:55:22;99248.38;;;9.39;96.63
60852;BME280;48553;50.766;2.900;2023-04-01T05:58:22;99246.81;;;9.38;96.71
60852;BME280;48553;50.766;2.900;2023-04-01T06:01:23;99247.59;;;9.38;96.58
60852;BME280;48553;50.766;2.900;2023-04-01T06:04:23;99251.13;;;9.39;96.42
60852;BME280;48553;50.766;2.900;2023-04-01T06:07:27;99250.75;;;9.40;96.41
60852;BME280;48553;50.766;2.900;2023-04-01T06:10:55;99249.91;;;9.36;96.71
60852;BME280;48553;50.766;2.900;2023-04-01T06:56:21;99296.38;;;9.36;96.80
60852;BME280;48553;50.766;2.900;2023-04-01T06:59:28;99312.84;;;9.40;96.64
60852;BME280;48553;50.766;2.900;2023-04-01T07:02:48;99309.31;;;9.39;96.66
60852;BME280;48553;50.766;2.900;2023-04-01T07:05:56;99303.06;;;9.39;96.56
60852;BME280;48553;50.766;2.900;2023-04-01T07:09:04;99313.56;;;9.37;96.68
60852;BME280;48553;50.766;2.900;2023-04-01T07:15:40;99324.16;;;9.38;96.50
60852;BME280;48553;50.766;2.900;2023-04-01T07:18:48;99331.97;;;9.40;96.44
60852;BME280;48553;50.766;2.900;2023-04-01T07:21:56;99337.06;;;9.38;96.81
60852;BME280;48553;50.766;2.900;2023-04-01T07:25:05;99335.44;;;9.37;96.90
60852;BME280;48553;50.766;2.900;2023-04-01T07:28:15;99345.59;;;9.36;96.91
60852;BME280;48553;50.766;2.900;2023-04-01T07:34:57;99348.34;;;9.36;97.16
60852;BME280;48553;50.766;2.900;2023-04-01T07:42:09;99362.06;;;9.40;96.93
60852;BME280;48553;50.766;2.900;2023-04-01T07:48:26;99364.44;;;9.41;97.17
60852;BME280;48553;50.766;2.900;2023-04-01T07:55:10;99371.56;;;9.46;97.21
60852;BME280;48553;50.766;2.900;2023-04-01T07:58:35;99380.19;;;9.48;97.27
60852;BME280;48553;50.766;2.900;2023-04-01T08:02:02;99379.84;;;9.50;97.12
60852;BME280;48553;50.766;2.900;2023-04-01T08:15:18;99392.63;;;9.65;97.06
60852;BME280;48553;50.766;2.900;2023-04-01T08:18:44;99396.94;;;9.66;97.12
60852;BME280;48553;50.766;2.900;2023-04-01T08:21:50;99402.09;;;9.71;97.35
60852;BME280;48553;50.766;2.900;2023-04-01T08:24:54;99406.50;;;9.76;97.10
60852;BME280;48553;50.766;2.900;2023-04-01T08:28:17;99412.75;;;9.76;97.02
60852;BME280;48553;50.766;2.900;2023-04-01T08:31:30;99413.13;;;9.75;97.22
60852;BME280;48553;50.766;2.900;2023-04-01T08:34:38;99413.84;;;9.72;97.59
60852;BME280;48553;50.766;2.900;2023-04-01T08:37:41;99421.25;;;9.71;97.71
60852;BME280;48553;50.766;2.900;2023-04-01T08:57:12;99446.44;;;9.80;97.76
60852;BME280;48553;50.766;2.900;2023-04-01T09:00:19;99442.63;;;9.85;97.39
60852;BME280;48553;50.766;2.900;2023-04-01T09:06:52;99446.88;;;9.82;97.59
60852;BME280;48553;50.766;2.900;2023-04-01T09:13:39;99465.59;;;9.80;97.64
60852;BME280;48553;50.766;2.900;2023-04-01T09:33:50;99459.53;;;9.91;97.53
60852;BME280;48553;50.766;2.900;2023-04-01T09:47:16;99486.38;;;10.04;97.10
60852;BME280;48553;50.766;2.900;2023-04-01T09:54:04;99487.94;;;10.06;97.18
60852;BME280;48553;50.766;2.900;2023-04-01T10:03:48;99494.25;;;10.06;97.68
60852;BME280;48553;50.766;2.900;2023-04-01T10:10:46;99509.00;;;10.01;97.90
60852;BME280;48553;50.766;2.900;2023-04-01T10:14:12;99507.41;;;10.00;97.68
60852;BME280;48553;50.766;2.900;2023-04-01T10:57:54;99544.44;;;10.14;97.76
60852;BME280;48553;50.766;2.900;2023-04-01T11:01:47;99559.19;;;10.09;97.85
60852;BME280;48553;50.766;2.900;2023-04-01T11:09:02;99554.50;;;10.10;97.62
60852;BME280;48553;50.766;2.900;2023-04-01T11:15:42;99564.69;;;10.09;97.52
60852;BME280;48553;50.766;2.900;2023-04-01T11:25:34;99575.31;;;10.14;97.46
60852;BME280;48553;50.766;2.900;2023-04-01T11:46:15;99589.09;;;10.18;96.97
60852;BME280;48553;50.766;2.900;2023-04-01T11:49:46;99600.75;;;10.15;97.00
60852;BME280;48553;50.766;2.900;2023-04-01T11:53:08;99610.91;;;10.14;97.05
60852;BME280;48553;50.766;2.900;2023-04-01T12:09:37;99625.34;;;10.11;96.60
60852;BME280;48553;50.766;2.900;2023-04-01T12:13:04;99628.88;;;10.12;96.57
60852;BME280;48553;50.766;2.900;2023-04-01T12:16:11;99636.63;;;10.10;96.74
60852;BME280;48553;50.766;2.900;2023-04-01T12:19:26;99651.56;;;10.12;96.65
60852;BME280;48553;50.766;2.900;2023-04-01T12:26:13;99650.75;;;10.12;96.46
60852;BME280;48553;50.766;2.900;2023-04-01T12:43:12;99666.31;;;10.08;96.56
60852;BME280;48553;50.766;2.900;2023-04-01T12:50:14;99675.06;;;10.13;96.19
60852;BME280;48553;50.766;2.900;2023-04-01T13:19:45;99692.06;;;10.22;96.59
60852;BME280;48553;50.766;2.900;2023-04-01T13:36:59;99716.88;;;10.30;96.81
60852;BME280;48553;50.766;2.900;2023-04-01T13:40:28;99713.34;;;10.29;96.84
60852;BME280;48553;50.766;2.900;2023-04-01T13:43:41;99719.63;;;10.30;96.96
60852;BME280;48553;50.766;2.900;2023-04-01T13:46:54;99727.84;;;10.30;96.62
60852;BME280;48553;50.766;2.900;2023-04-01T14:00:23;99739.13;;;10.28;97.04
60852;BME280;48553;50.766;2.900;2023-04-01T14:10:25;99743.81;;;10.28;97.29
60852;BME280;48553;50.766;2.900;2023-04-01T14:17:16;99755.91;;;10.27;97.59
60852;BME280;48553;50.766;2.900;2023-04-01T14:20:39;99761.75;;;10.25;97.59
60852;BME280;48553;50.766;2.900;2023-04-01T14:40:49;99774.66;;;10.24;96.83
60852;BME280;48553;50.766;2.900;2023-04-01T14:50:46;99793.72;;;10.21;96.70
60852;BME280;48553;50.766;2.900;2023-04-01T14:54:16;99790.19;;;10.20;96.69
60852;BME280;48553;50.766;2.900;2023-04-01T14:57:30;99798.31;;;10.17;96.55
60852;BME280;48553;50.766;2.900;2023-04-01T15:00:48;99793.66;;;10.17;96.52
60852;BME280;48553;50.766;2.900;2023-04-01T15:20:04;99833.31;;;10.08;96.14
60852;BME280;48553;50.766;2.900;2023-04-01T15:23:20;99831.00;;;10.10;95.99
60852;BME280;48553;50.766;2.900;2023-04-01T15:29:43;99839.94;;;10.07;96.04
60852;BME280;48553;50.766;2.900;2023-04-01T15:49:43;99853.19;;;10.04;96.32
60852;BME280;48553;50.766;2.900;2023-04-01T15:53:03;99855.16;;;10.04;96.07
60852;BME280;48553;50.766;2.900;2023-04-01T16:00:02;99876.22;;;10.03;95.89
60852;BME280;48553;50.766;2.900;2023-04-01T16:03:18;99875.38;;;9.99;95.86
60852;BME280;48553;50.766;2.900;2023-04-01T16:09:46;99887.38;;;9.95;96.18
60852;BME280;48553;50.766;2.900;2023-04-01T16:12:57;99883.91;;;9.98;95.64
60852;BME280;48553;50.766;2.900;2023-04-01T16:22:49;99899.81;;;9.92;95.63
60852;BME280;48553;50.766;2.900;2023-04-01T16:26:15;99900.06;;;9.87;95.56
60852;BME280;48553;50.766;2.900;2023-04-01T16:29:47;99906.34;;;9.88;95.64
60852;BME280;48553;50.766;2.900;2023-04-01T16:33:14;99916.03;;;9.85;95.58
60852;BME280;48553;50.766;2.900;2023-04-01T16:39:50;99923.00;;;9.82;95.45
60852;BME280;48553;50.766;2.900;2023-04-01T16:42:56;99922.56;;;9.80;95.44
60852;BME280;48553;50.766;2.900;2023-04-01T16:49:36;99936.19;;;9.77;95.11
60852;BME280;48553;50.766;2.900;2023-04-01T16:53:40;99929.81;;;9.73;95.28
60852;BME280;48553;50.766;2.900;2023-04-01T16:56:25;99934.81;;;9.71;95.18
60852;BME280;48553;50.766;2.900;2023-04-01T16:59:35;99942.25;;;9.70;94.97
60852;BME280;48553;50.766;2.900;2023-04-01T17:02:47;99943.28;;;9.66;95.08
60852;BME280;48553;50.766;2.900;2023-04-01T17:09:35;99954.91;;;9.62;95.13
60852;BME280;48553;50.766;2.900;2023-04-01T17:12:54;99966.31;;;9.65;95.03
60852;BME280;48553;50.766;2.900;2023-04-01T17:22:58;99974.31;;;9.57;94.74
60852;BME280;48553;50.766;2.900;2023-04-01T17:36:44;99998.75;;;9.50;94.58
60852;BME280;48553;50.766;2.900;2023-04-01T17:40:20;100008.09;;;9.49;94.57
60852;BME280;48553;50.766;2.900;2023-04-01T18:04:08;100047.56;;;9.36;94.89
60852;BME280;48553;50.766;2.900;2023-04-01T18:18:46;100047.00;;;9.30;94.89
60852;BME280;48553;50.766;2.900;2023-04-01T18:25:01;100064.09;;;9.27;94.97
60852;BME280;48553;50.766;2.900;2023-04-01T18:31:17;100080.50;;;9.27;94.99
60852;BME280;48553;50.766;2.900;2023-04-01T18:35:00;100091.78;;;9.26;95.10
60852;BME280;48553;50.766;2.900;2023-04-01T18:38:40;100091.69;;;9.22;95.19
60852;BME280;48553;50.766;2.900;2023-04-01T18:45:33;100112.28;;;9.19;95.23
60852;BME280;48553;50.766;2.900;2023-04-01T18:48:48;100113.88;;;9.20;95.21
60852;BME280;48553;50.766;2.900;2023-04-01T18:51:58;100119.69;;;9.19;95.34
60852;BME280;48553;50.766;2.900;2023-04-01T18:58:36;100138.81;;;9.19;95.24
60852;BME280;48553;50.766;2.900;2023-04-01T19:05:20;100146.56;;;9.17;95.29
60852;BME280;48553;50.766;2.900;2023-04-01T19:11:42;100151.56;;;9.15;95.32
60852;BME280;48553;50.766;2.900;2023-04-01T19:14:56;100160.13;;;9.13;95.18
60852;BME280;48553;50.766;2.900;2023-04-01T19:18:25;100167.09;;;9.11;95.12
60852;BME280;48553;50.766;2.900;2023-04-01T19:21:41;100174.81;;;9.09;95.21
60852;BME280;48553;50.766;2.900;2023-04-01T19:25:02;100178.00;;;9.11;95.18
60852;BME280;48553;50.766;2.900;2023-04-01T19:35:06;100193.81;;;9.05;95.36
60852;BME280;48553;50.766;2.900;2023-04-01T19:41:27;100192.69;;;9.06;95.40
60852;BME280;48553;50.766;2.900;2023-04-01T19:47:57;100200.44;;;9.04;95.39
60852;BME280;48553;50.766;2.900;2023-04-01T19:51:37;100212.84;;;9.02;95.59
60852;BME280;48553;50.766;2.900;2023-04-01T19:55:02;100211.13;;;8.97;95.42
60852;BME280;48553;50.766;2.900;2023-04-01T20:05:04;100228.31;;;8.97;95.58
60852;BME280;48553;50.766;2.900;2023-04-01T20:14:46;100243.00;;;8.93;95.69
60852;BME280;48553;50.766;2.900;2023-04-01T20:17:51;100244.47;;;8.90;95.66
60852;BME280;48553;50.766;2.900;2023-04-01T20:24:30;100248.47;;;8.93;95.53
60852;BME280;48553;50.766;2.900;2023-04-01T20:27:39;100261.66;;;8.91;95.76
60852;BME280;48553;50.766;2.900;2023-04-01T20:31:36;100284.31;;;8.91;95.54
60852;BME280;48553;50.766;2.900;2023-04-01T20:45:15;100285.31;;;8.87;95.70
60852;BME280;48553;50.766;2.900;2023-04-01T21:05:26;100323.31;;;8.80;95.78
60852;BME280;48553;50.766;2.900;2023-04-01T21:15:27;100330.38;;;8.81;95.60
60852;BME280;48553;50.766;2.900;2023-04-01T21:22:27;100336.53;;;8.77;95.47
60852;BME280;48553;50.766;2.900;2023-04-01T21:28:45;100346.97;;;8.75;95.89
60852;BME280;48553;50.766;2.900;2023-04-01T22:14:15;100419.53;;;8.64;95.42
60852;BME280;48553;50.766;2.900;2023-04-01T22:20:40;100420.22;;;8.61;95.54
60852;BME280;48553;50.766;2.900;2023-04-01T22:26:58;100425.66;;;8.61;95.33
60852;BME280;48553;50.766;2.900;2023-04-01T22:33:13;100431.47;;;8.60;95.32
60852;BME280;48553;50.766;2.900;2023-04-01T22:39:54;100443.06;;;8.56;95.46
60852;BME280;48553;50.766;2.900;2023-04-01T22:43:04;100452.34;;;8.55;95.28
60852;BME280;48553;50.766;2.900;2023-04-01T22:49:48;100445.31;;;8.54;95.25
60852;BME280;48553;50.766;2.900;2023-04-01T22:56:19;100461.69;;;8.54;94.95
60852;BME280;48553;50.766;2.900;2023-04-01T23:02:40;100467.00;;;8.51;95.21
60852;BME280;48553;50.766;2.900;2023-04-01T23:05:51;100477.44;;;8.49;95.17
60852;BME280;48553;50.766;2.900;2023-04-01T23:09:05;100476.34;;;8.50;95.02
60852;BME280;48553;50.766;2.900;2023-04-01T23:12:13;100486.13;;;8.51;94.94
60852;BME280;48553;50.766;2.900;2023-04-01T23:15:15;100484.06;;;8.48;95.17
60852;BME280;48553;50.766;2.900;2023-04-01T23:18:36;100489.34;;;8.44;94.95
60852;BME280;48553;50.766;2.900;2023-04-01T23:21:50;100488.25;;;8.45;95.14
60852;BME280;48553;50.766;2.900;2023-04-01T23:31:38;100509.13;;;8.41;95.27
60852;BME280;48553;50.766;2.900;2023-04-01T23:34:46;100513.94;;;8.44;95.08
60852;BME280;48553;50.766;2.900;2023-04-01T23:37:48;100529.06;;;8.42;94.87
60852;BME280;48553;50.766;2.900;2023-04-01T23:40:50;100520.06;;;8.41;95.27
60852;BME280;48553;50.766;2.900;2023-04-01T23:44:12;100518.44;;;8.40;95.24
60852;BME280;48553;50.766;2.900;2023-04-01T23:47:35;100524.22;;;8.39;95.13
60852;BME280;48553;50.766;2.900;2023-04-01T23:50:37;100530.78;;;8.37;95.16
60852;BME280;48553;50.766;2.900;2023-04-01T23:53:44;100537.88;;;8.39;94.81
60852;BME280;48553;50.766;2.900;2023-04-01T23:56:53;100539.81;;;8.38;95.02
